createdAt,value
2022-09-07T00:03:58.955Z,79.75
2022-09-07T00:09:02.173Z,79.76
2022-09-07T00:14:05.637Z,79.73
2022-09-07T00:19:08.555Z,79.95
2022-09-07T00:24:11.178Z,80.39
2022-09-07T00:29:13.863Z,80.06
2022-09-07T00:34:16.939Z,80.48
2022-09-07T00:39:19.557Z,81.10
2022-09-07T00:44:40.960Z,81.49
2022-09-07T00:55:20.963Z,83.03
2022-09-07T01:00:23.666Z,84.24
2022-09-07T01:05:39.265Z,85.38
2022-09-07T01:10:41.942Z,86.07
2022-09-07T01:16:02.171Z,86.65
2022-09-07T01:21:17.080Z,87.34
2022-09-07T01:26:38.235Z,87.62
2022-09-07T01:31:51.668Z,87.27
2022-09-07T01:36:57.136Z,87.89
2022-09-07T01:42:04.253Z,87.36
2022-09-07T01:47:20.811Z,87.56
2022-09-07T01:52:33.169Z,88.40
2022-09-07T01:57:39.401Z,88.42
2022-09-07T02:02:51.702Z,88.23
2022-09-07T02:07:58.817Z,88.49
2022-09-07T02:13:08.353Z,88.87
2022-09-07T02:18:13.941Z,88.95
2022-09-07T02:23:23.270Z,88.23
2022-09-07T02:28:30.877Z,88.31
2022-09-07T02:33:34.268Z,88.30
2022-09-07T02:38:36.980Z,88.17
2022-09-07T02:43:40.101Z,88.33
2022-09-07T02:48:50.065Z,88.53
2022-09-07T02:54:02.704Z,88.60
2022-09-07T02:59:24.016Z,88.65
2022-09-07T03:04:29.646Z,88.88
2022-09-07T03:09:35.922Z,88.72
2022-09-07T03:14:43.132Z,88.80
2022-09-07T03:19:45.793Z,89.18
2022-09-07T03:24:48.402Z,89.84
2022-09-07T03:29:50.993Z,90.27
2022-09-07T03:34:53.836Z,90.55
2022-09-07T03:39:56.661Z,90.73
2022-09-07T03:44:59.368Z,91.16
2022-09-07T03:50:02.099Z,91.15
2022-09-07T03:55:05.203Z,91.59
2022-09-07T04:00:08.444Z,91.63
2022-09-07T04:05:11.706Z,91.61
2022-09-07T04:10:14.383Z,91.49
2022-09-07T04:15:17.020Z,91.72
2022-09-07T04:20:19.870Z,91.82
2022-09-07T04:25:22.505Z,91.24
2022-09-07T04:30:25.123Z,90.64
2022-09-07T04:35:28.232Z,90.19
2022-09-07T04:40:30.971Z,89.47
2022-09-07T04:45:36.295Z,89.10
2022-09-07T04:50:38.988Z,88.90
2022-09-07T04:55:41.612Z,87.14
2022-09-07T05:00:44.266Z,83.88
2022-09-07T05:05:46.949Z,79.88
2022-09-07T05:10:53.140Z,75.55
2022-09-07T05:15:56.031Z,73.49
2022-09-07T05:21:07.142Z,70.59
2022-09-07T05:26:11.165Z,68.44
2022-09-07T05:36:19.144Z,62.80
2022-09-07T05:41:23.275Z,59.63
2022-09-07T05:46:25.905Z,57.10
2022-09-07T05:51:28.871Z,53.90
2022-09-07T05:56:33.829Z,50.63
2022-09-07T06:01:36.656Z,49.19
2022-09-07T06:06:39.227Z,47.00
2022-09-07T06:11:41.900Z,44.91
2022-09-07T06:16:44.774Z,42.72
2022-09-07T06:21:47.577Z,41.23
2022-09-07T06:26:50.262Z,40.35
2022-09-07T06:37:15.553Z,36.86
2022-09-07T06:42:18.201Z,35.02
2022-09-07T06:47:20.827Z,33.50
2022-09-07T06:52:23.864Z,31.92
2022-09-07T06:57:27.249Z,30.52
2022-09-07T07:02:29.922Z,28.57
2022-09-07T07:07:32.644Z,28.29
2022-09-07T07:17:40.065Z,26.33
2022-09-07T07:22:46.749Z,24.22
2022-09-07T07:27:50.362Z,22.89
2022-09-07T07:32:53.299Z,22.10
2022-09-07T07:43:18.983Z,20.43
2022-09-07T07:48:21.678Z,19.14
2022-09-07T07:53:41.890Z,18.24
2022-09-07T07:58:47.336Z,16.98
2022-09-07T08:03:51.058Z,16.33
2022-09-07T08:08:54.912Z,15.53
2022-09-07T08:14:00.348Z,14.81
2022-09-07T08:19:03.486Z,14.19
2022-09-07T08:24:06.151Z,13.92
2022-09-07T08:29:08.762Z,13.58
2022-09-07T08:34:11.574Z,12.67
2022-09-07T08:39:14.542Z,12.04
2022-09-07T08:44:28.787Z,11.51
2022-09-07T08:49:49.837Z,11.41
2022-09-07T08:55:00.839Z,11.23
2022-09-07T09:00:08.916Z,10.68
2022-09-07T09:05:16.976Z,10.61
2022-09-07T09:10:28.252Z,10.02
2022-09-07T09:15:35.557Z,10.05
2022-09-07T09:20:46.412Z,9.54
2022-09-07T09:25:56.193Z,9.72
2022-09-07T09:30:58.825Z,9.09
2022-09-07T09:36:02.085Z,9.09
2022-09-07T09:41:08.982Z,8.77
2022-09-07T09:46:23.065Z,8.56
2022-09-07T09:56:50.229Z,9.18
2022-09-07T10:07:23.100Z,8.61
2022-09-07T10:12:33.990Z,8.56
2022-09-07T10:17:42.286Z,9.04
2022-09-07T10:23:05.153Z,8.80
2022-09-07T10:28:14.253Z,9.22
2022-09-07T10:33:16.849Z,9.21
2022-09-07T10:38:21.181Z,9.37
2022-09-07T10:43:23.854Z,8.67
2022-09-07T10:48:29.713Z,8.55
2022-09-07T10:54:29.880Z,8.53
2022-09-07T10:59:26.547Z,9.23
2022-09-07T11:04:35.506Z,9.53
2022-09-07T11:09:51.459Z,9.37
2022-09-07T11:14:58.340Z,9.21
2022-09-07T11:20:18.644Z,9.21
2022-09-07T11:25:36.657Z,8.73
2022-09-07T11:30:47.769Z,8.63
2022-09-07T11:35:53.427Z,8.63
2022-09-07T11:40:56.007Z,8.85
2022-09-07T11:46:05.097Z,8.79
2022-09-07T11:51:15.887Z,9.56
2022-09-07T11:56:26.079Z,9.55
2022-09-07T12:01:40.907Z,8.77
2022-09-07T12:06:46.515Z,8.69
2022-09-07T12:11:55.063Z,9.29
2022-09-07T12:17:08.560Z,9.83
2022-09-07T12:22:22.026Z,10.10
2022-09-07T12:27:25.623Z,9.86
2022-09-07T12:32:55.670Z,9.73
2022-09-07T12:38:00.470Z,10.54
2022-09-07T12:43:15.069Z,10.44
2022-09-07T12:48:17.642Z,9.94
2022-09-07T12:53:26.136Z,10.16
2022-09-07T12:58:31.790Z,10.68
2022-09-07T13:03:50.089Z,10.60
2022-09-07T13:08:56.874Z,10.70
2022-09-07T13:14:03.925Z,11.27
2022-09-07T13:19:12.449Z,11.23
2022-09-07T13:29:42.217Z,11.58
2022-09-07T13:34:50.651Z,11.93
2022-09-07T13:39:55.663Z,12.33
2022-09-07T13:45:02.603Z,12.49
2022-09-07T13:50:31.457Z,12.94
2022-09-07T13:55:40.176Z,13.96
2022-09-07T14:00:53.483Z,14.33
2022-09-07T14:06:15.085Z,14.11
2022-09-07T14:11:23.080Z,14.46
2022-09-07T14:16:25.731Z,17.22
2022-09-07T14:21:28.330Z,15.66
2022-09-07T14:26:30.968Z,15.57
2022-09-07T14:31:34.829Z,16.53
2022-09-07T14:36:45.722Z,17.56
2022-09-07T14:41:49.623Z,18.57
2022-09-07T14:46:56.505Z,18.75
2022-09-07T14:52:00.678Z,19.21
2022-09-07T14:57:05.319Z,20.16
2022-09-07T15:02:14.934Z,20.69
2022-09-07T15:07:37.691Z,21.21
2022-09-07T15:12:44.275Z,22.75
2022-09-07T15:17:46.986Z,24.35
2022-09-07T15:22:49.717Z,25.67
2022-09-07T15:27:53.744Z,26.20
2022-09-07T15:32:57.408Z,26.86
2022-09-07T15:38:01.413Z,27.07
2022-09-07T15:43:13.993Z,27.36
2022-09-07T15:48:25.454Z,27.31
2022-09-07T15:58:54.921Z,27.17
2022-09-07T16:03:58.531Z,27.62
2022-09-07T16:09:01.480Z,28.15
2022-09-07T16:14:04.630Z,28.70
2022-09-07T16:19:08.064Z,29.50
2022-09-07T16:24:10.952Z,30.62
2022-09-07T16:29:13.650Z,31.36
2022-09-07T16:34:21.981Z,32.41
2022-09-07T16:39:24.646Z,33.56
2022-09-07T16:44:27.278Z,34.60
2022-09-07T16:49:30.291Z,35.66
2022-09-07T16:54:32.983Z,36.45
2022-09-07T16:59:35.785Z,37.65
2022-09-07T17:04:38.379Z,38.22
2022-09-07T17:09:41.391Z,38.97
2022-09-07T17:14:43.986Z,39.61
2022-09-07T17:19:46.690Z,40.20
2022-09-07T17:24:49.267Z,40.88
2022-09-07T17:29:53.875Z,41.86
2022-09-07T17:34:57.240Z,42.83
2022-09-07T17:39:59.898Z,43.67
2022-09-07T17:45:04.453Z,44.61
2022-09-07T17:50:07.429Z,45.41
2022-09-07T17:55:09.971Z,45.82
2022-09-07T18:00:13.200Z,47.00
2022-09-07T18:05:15.851Z,47.98
2022-09-07T18:10:18.612Z,48.55
2022-09-07T18:15:22.624Z,49.28
2022-09-07T18:20:25.877Z,49.83
2022-09-07T18:25:29.280Z,50.64
2022-09-07T18:30:34.998Z,51.10
2022-09-07T18:35:38.214Z,51.71
2022-09-07T18:40:40.792Z,52.21
2022-09-07T18:45:43.600Z,53.11
2022-09-07T18:50:52.652Z,54.11
2022-09-07T18:56:00.730Z,54.67
2022-09-07T19:01:04.729Z,55.37
2022-09-07T19:06:15.424Z,56.32
2022-09-07T19:11:19.232Z,57.13
2022-09-07T19:16:21.885Z,57.54
2022-09-07T19:21:25.537Z,58.15
2022-09-07T19:26:30.021Z,58.70
2022-09-07T19:31:32.739Z,59.37
2022-09-07T19:36:36.052Z,60.34
2022-09-07T19:41:41.984Z,60.78
2022-09-07T19:46:45.347Z,61.12
2022-09-07T19:51:51.199Z,61.30
2022-09-07T19:56:53.887Z,61.90
2022-09-07T20:01:56.655Z,62.38
2022-09-07T20:06:59.214Z,63.19
2022-09-07T20:12:03.944Z,63.94
2022-09-07T20:17:06.828Z,64.30
2022-09-07T20:22:09.377Z,64.87
2022-09-07T20:27:12.307Z,65.23
2022-09-07T20:32:15.259Z,65.81
2022-09-07T20:37:17.841Z,65.91
2022-09-07T20:42:20.589Z,65.62
2022-09-07T20:47:24.252Z,65.91
2022-09-07T20:52:27.156Z,66.08
2022-09-07T20:57:29.764Z,66.20
2022-09-07T21:02:32.472Z,66.74
2022-09-07T21:07:37.831Z,66.48
2022-09-07T21:12:40.614Z,66.48
2022-09-07T21:17:43.180Z,66.66
2022-09-07T21:22:45.967Z,66.67
2022-09-07T21:27:48.847Z,66.54
2022-09-07T21:32:52.345Z,66.63
2022-09-07T21:37:55.032Z,66.87
2022-09-07T21:42:57.638Z,66.72
2022-09-07T21:48:00.428Z,67.00
2022-09-07T21:53:02.966Z,67.30
2022-09-07T21:58:05.724Z,67.80
2022-09-07T22:03:08.422Z,68.09
2022-09-07T22:08:11.041Z,68.53
2022-09-07T22:13:13.585Z,68.63
2022-09-07T22:18:16.213Z,68.84
2022-09-07T22:23:18.739Z,68.93
2022-09-07T22:28:21.303Z,69.19
2022-09-07T22:33:24.311Z,69.35
2022-09-07T22:38:27.617Z,69.06
2022-09-07T22:43:30.262Z,69.38
2022-09-07T22:48:33.005Z,69.96
2022-09-07T22:53:36.619Z,70.51
2022-09-07T22:58:39.550Z,70.87
2022-09-07T23:03:43.511Z,70.83
2022-09-07T23:08:46.377Z,71.41
2022-09-07T23:13:53.217Z,71.40
2022-09-07T23:18:57.259Z,71.32
2022-09-07T23:24:00.422Z,72.51
2022-09-07T23:29:04.921Z,72.48
2022-09-07T23:34:07.880Z,72.12
2022-09-07T23:39:11.275Z,71.76
2022-09-07T23:44:14.180Z,71.82
2022-09-07T23:49:16.776Z,71.45
2022-09-07T23:54:19.474Z,71.20
2022-09-07T23:59:22.172Z,71.09
